キンシャサ の空港の天気 - METARとTAF

キンシャサ/ヌジリ国際空港 ( FZAA / FIH ) - コンゴ民主共和国 キンシャサ
飛行場実況気象(Metar)
観測時間08/11 06:00 WAT (08/11 05:00 UTC)
風向・風速静穏 0m/s
視程6000m
天気現象
全天の4割程度の雲 雲底高度 430m
気温21℃
湿度83%
気圧1015hPa
METARFZAA 110500Z 00000KT 6000 SCT014 21/18 Q1015 NOSIG
過去の天気等 Google飛行場航空写真 Wunderground天気予報

過去48時間のMETAR

飛行場予報(TAF)
発表時間: 8/11 06:00 WAT (8/11 05:00 UTC)
予報対象時間: 11日7時 WAT ~ 12日13時 WAT
風向・風速西南西 3m/s
視程4000m
天気現象もや
全天の4割程度の雲 雲底高度 490m
11日9時 WAT ~ 11日11時 WAT に徐々に
視程7000m
天気現象運行に影響にある天気現象が終了
12日6時 WAT から 確率 30% で
視程4000m
天気現象もや
TAF FZAA 110500Z 1106/1212 25006KT 4000 BR SCT016
BECMG 1108/1110 7000 NSW
PROB30 1205/1209 4000 BR